Last 30 Days

Alpine-Roundhouse Top 7880'

Daily Data | America/Los_Angeles
as of 5/30/20 7:38 PM PDT
Date Daily Max Temp (°F) Daily Min Temp (°F) Wind Spd (mph) Daily Max Wind (mph) Max RH (%) Min RH (%) Wet Bulb (°F) Bat Volt Min Day (V)
5/29/20 76.5 55.2 4.3 20.9 64 18 47.9 12.4
5/28/20 74.2 55.1 3.5 17.1 44 15 46.2 12.6
5/27/20 70.3 52.9 3.5 18.8 68 26 48.6 12.8
5/26/20 75.5 52.2 2.2 19.4 69 31 51.0 12.3
5/25/20 70.1 46.3 3.0 17.3 65 27 45.3 12.2
5/24/20 61.9 38.8 1.9 13.1 62 31 39.6 12.9
5/23/20 56.3 30.3 4.0 17.3 68 29 33.9 12.9
5/22/20 46.8 32.4 4.6 22.3 93 43 34.3 13.0
5/21/20 59.7 32.5 3.3 24.0 92 31 37.5 13.0
5/20/20 41.5 29.2 3.2 20.3 99 80 33.6 13.0
5/19/20 38.5 26.3 3.8 18.6 99 81 30.4 13.1
5/18/20 32.9 27.2 6.3 40.9 100 94 29.5 13.0
5/17/20 41.6 32.4 13.0 48.1 99 74 36.4 12.8
5/16/20 54.5 38.1 5.6 26.4 89 45 40.2 12.8
5/15/20 52.6 30.9 2.2 16.0 99 47 38.4 13.0
5/14/20 35.6 28.7 4.3 24.3 100 95 32.2 13.1
5/13/20 37.0 27.6 4.6 22.7 100 80 31.0 12.8
5/12/20 34.2 29.3 7.6 33.1 100 88 31.7 12.6
5/11/20 47.7 31.3 8.0 32.0 88 33 34.2 12.5
5/10/20 60.8 42.6 5.9 24.1 75 27 42.7 12.5
5/9/20 70.1 50.2 4.1 19.5 46 19 42.2 12.6
5/8/20 68.0 45.1 3.5 15.1 41 16 40.6 12.6
5/7/20 58.1 40.5 4.1 14.1 35 23 35.8 12.7
5/6/20 62.8 39.1 2.9 15.2 54 12 35.2 12.4
5/5/20 56.5 38.6 5.0 21.4 58 20 35.6 12.8
5/4/20 56.1 32.1 2.3 12.8 39 17 32.5 12.9
5/3/20 48.5 32.3 3.2 15.3 88 32 33.5 13.0
5/2/20 47.4 35.0 5.1 23.2 85 41 34.4 12.8
5/1/20 55.0 36.5 5.8 22.5 83 32 36.7 12.8
4/30/20 49.3 36.7 3.9 25.0 92 45 38.6 12.5
Max 76.5 55.2 13.0 48.1 100 95 51.0 13.1
Avg - - 4.5 - - - 37.6 -
Min 32.9 26.3 1.9 12.8 35 12 29.5 12.2